Argent Gerbera — V7UC4 — position and weather

sailwx.info

Track history (hours):
 
Tides and Currents Weather Stations Pressure Air Temp Water Temp Dewpoint Dewpoint Depression Visibility Wind Speed Wind Dir Waves Ship Positions

Argent Gerbera

Last reported at 2014-Sep-13 11:32 UTC. Time now 2014-Sep-15 09:30 UTC.
Position N 38°00' W 010°37'.

Length 175 m; draft 6.8 m.

Type: Ship (hazmat cat A). MMSI: 538003929.

Date/timePositionNaut miles runAvg speedWind from/ knotsBaromVisibWave heightAir tempDewpointWater temp
2014-Sep-13 11:32N 38°00' W 010°37'1313.0
2014-Sep-13 10:33N 38°13' W 010°39'51911.2
2014-Sep-11 12:16N 46°40' W 008°06'911.6
2014-Sep-11 11:29N 46°33' W 008°14'6713.3
2014-Sep-11 06:27N 47°31' W 007°27'1212.8
2014-Sep-11 05:32N 47°41' W 007°17'1212.4
2014-Sep-11 04:32N 47°52' W 007°07'1312.7
2014-Sep-11 03:32N 48°02' W 006°57'26812.5
2014-Sep-10 06:03N 50°19' W 001°04'1515.2
2014-Sep-10 05:05N 50°23' W 000°42'916.0
2014-Sep-10 04:32N 50°24' W 000°28'1915.9
2014-Sep-10 03:22N 50°30' W 000°00'1315.7
2014-Sep-10 02:33N 50°33' E 000°19'1514.6
2014-Sep-10 01:33N 50°39' E 000°40'1313.5
2014-Sep-10 00:33N 50°47' E 000°57'1712.0
2014-Sep-09 23:07N 50°59' E 001°17'711.9
2014-Sep-09 22:33N 51°03' E 001°25'1414.4
2014-Sep-09 21:34N 51°12' E 001°44'1616.5
2014-Sep-09 20:34N 51°27' E 001°55'1616.2
2014-Sep-09 19:33N 51°38' E 002°14'1715.5
2014-Sep-09 18:29N 51°50' E 002°33'3113.0
2014-Sep-09 16:08N 52°03' E 003°18'813.2
2014-Sep-09 15:32N 52°03' E 003°31'1212.6
2014-Sep-09 14:33N 52°03' E 003°51'10 9.9
2014-Sep-09 13:34N 51°59' E 004°05'10 9.8
2014-Sep-09 12:33N 51°53' E 004°18'1 0.8
2014-Sep-09 11:13N 51°53' E 004°17'0 0.0
2014-Sep-09 10:22N 51°53' E 004°17'0 0.0
2014-Sep-09 09:31N 51°53' E 004°17'0 0.0
2014-Sep-09 08:28N 51°53' E 004°17'0 0.0
2014-Sep-09 07:22N 51°53' E 004°17'0 0.0
2014-Sep-09 06:25N 51°53' E 004°17'0 0.0
2014-Sep-09 05:31N 51°53' E 004°17'0 0.0
2014-Sep-09 04:31N 51°53' E 004°17'0 0.0
2014-Sep-09 03:31N 51°53' E 004°17'0 0.0
2014-Sep-09 02:28N 51°53' E 004°17'0 0.0
2014-Sep-09 00:04N 51°53' E 004°17'0 0.0
2014-Sep-08 23:31N 51°53' E 004°17'0 0.0
2014-Sep-08 22:31N 51°53' E 004°17'0 0.0
2014-Sep-08 21:22N 51°53' E 004°17'0 0.0
2014-Sep-08 20:31N 51°53' E 004°17'0 0.0
2014-Sep-08 19:31N 51°53' E 004°17'0 0.0
2014-Sep-08 18:25N 51°53' E 004°17'0 0.0
2014-Sep-08 17:19N 51°53' E 004°17'0 0.0
2014-Sep-08 16:25N 51°53' E 004°17'0 0.0
2014-Sep-08 15:19N 51°53' E 004°17'1 1.4
2014-Sep-08 14:33N 51°54' E 004°18'2 2.2
2014-Sep-08 13:32N 51°54' E 004°22'0 0.0
2014-Sep-08 11:14N 51°54' E 004°22'0 0.0
2014-Sep-08 10:26N 51°54' E 004°22'0 0.0
2014-Sep-08 09:29N 51°54' E 004°22'0 0.0
2014-Sep-08 08:14N 51°54' E 004°22'0 0.0
2014-Sep-08 07:32N 51°54' E 004°22'0 0.0
2014-Sep-08 06:26N 51°54' E 004°22'0 0.0
2014-Sep-08 05:29N 51°54' E 004°22'0 0.0
2014-Sep-08 04:32N 51°54' E 004°22'0 0.0
2014-Sep-08 03:20N 51°54' E 004°22'0 0.0
2014-Sep-08 02:20N 51°54' E 004°22'0 0.0
2014-Sep-07 23:32N 51°54' E 004°22'0 0.0
2014-Sep-07 21:17N 51°54' E 004°22'0 0.0
2014-Sep-07 20:32N 51°54' E 004°22'0 0.0
2014-Sep-07 19:20N 51°54' E 004°22'0 0.0
2014-Sep-07 18:29N 51°54' E 004°22'0 0.0
2014-Sep-07 10:26N 51°54' E 004°22'0 0.0
2014-Sep-07 09:14N 51°54' E 004°22'0 0.0
2014-Sep-07 08:26N 51°54' E 004°22'0 0.0
2014-Sep-07 07:20N 51°54' E 004°22'0 0.0
2014-Sep-07 06:32N 51°54' E 004°22'0 0.0
2014-Sep-07 05:32N 51°54' E 004°22'0 0.0
2014-Sep-07 04:32N 51°54' E 004°22'0 0.0
2014-Sep-07 03:08N 51°54' E 004°22'0 0.0
2014-Sep-06 21:08N 51°54' E 004°22'0 0.0
2014-Sep-06 20:27N 51°54' E 004°22'4 4.8
2014-Sep-06 19:34N 51°55' E 004°15'10 9.6
2014-Sep-06 18:33N 51°60' E 004°01'1010.5
2014-Sep-06 17:33N 51°59' E 003°44'9 7.7
2014-Sep-06 16:26N 51°55' E 003°32'0 0.0
2014-Sep-06 06:13N 51°55' E 003°32'0 0.0
2014-Sep-06 05:16N 51°55' E 003°32'3 4.5
2014-Sep-06 04:31N 51°55' E 003°27'10 9.8
2014-Sep-06 03:33N 51°53' E 003°12'1010.1
2014-Sep-06 02:33N 51°50' E 002°56'1310.5
2014-Sep-06 01:20N 51°45' E 002°37'910.8
2014-Sep-06 00:33N 51°38' E 002°28'1111.4
2014-Sep-05 23:33N 51°30' E 002°16'1313.0
2014-Sep-05 22:33N 51°18' E 002°09'1414.3
2014-Sep-05 21:33N 51°09' E 001°51'1515.2
2014-Sep-05 20:33N 50°58' E 001°34'4113.7
2014-Sep-05 17:32N 50°28' E 000°49'1414.4
2014-Sep-05 16:33N 50°24' E 000°28'18912.6
2014-Sep-05 01:31N 49°21' W 004°09'4413.6
2014-Sep-04 22:15N 48°58' W 005°07'1213.3
2014-Sep-04 21:19N 48°52' W 005°24'1312.9
2014-Sep-04 20:19N 48°44' W 005°40'1013.1
2014-Sep-04 19:33N 48°36' W 005°47'5512.8
2014-Sep-04 15:13N 47°47' W 006°25'  
Track history (hours):
 
Tides and Currents Weather Stations Pressure Air Temp Water Temp Dewpoint Dewpoint Depression Visibility Wind Speed Wind Dir Waves Ship Positions

Argent Gerbera

Last reported at 2014-Sep-13 11:32 UTC. Time now 2014-Sep-15 09:30 UTC.
Position N 38°00' W 010°37'.

Length 175 m; draft 6.8 m.

Type: Ship (hazmat cat A). MMSI: 538003929.

Date/timePositionNaut miles runAvg speedWind from/ knotsBaromVisibWave heightAir tempDewpointWater temp
2014-Sep-13 11:32N 38°00' W 010°37'1313.0
2014-Sep-13 10:33N 38°13' W 010°39'51911.2
2014-Sep-11 12:16N 46°40' W 008°06'911.6
2014-Sep-11 11:29N 46°33' W 008°14'6713.3
2014-Sep-11 06:27N 47°31' W 007°27'1212.8
2014-Sep-11 05:32N 47°41' W 007°17'1212.4
2014-Sep-11 04:32N 47°52' W 007°07'1312.7
2014-Sep-11 03:32N 48°02' W 006°57'26812.5
2014-Sep-10 06:03N 50°19' W 001°04'1515.2
2014-Sep-10 05:05N 50°23' W 000°42'916.0
2014-Sep-10 04:32N 50°24' W 000°28'1915.9
2014-Sep-10 03:22N 50°30' W 000°00'1315.7
2014-Sep-10 02:33N 50°33' E 000°19'1514.6
2014-Sep-10 01:33N 50°39' E 000°40'1313.5
2014-Sep-10 00:33N 50°47' E 000°57'1712.0
2014-Sep-09 23:07N 50°59' E 001°17'711.9
2014-Sep-09 22:33N 51°03' E 001°25'1414.4
2014-Sep-09 21:34N 51°12' E 001°44'1616.5
2014-Sep-09 20:34N 51°27' E 001°55'1616.2
2014-Sep-09 19:33N 51°38' E 002°14'1715.5
2014-Sep-09 18:29N 51°50' E 002°33'3113.0
2014-Sep-09 16:08N 52°03' E 003°18'813.2
2014-Sep-09 15:32N 52°03' E 003°31'1212.6
2014-Sep-09 14:33N 52°03' E 003°51'10 9.9
2014-Sep-09 13:34N 51°59' E 004°05'10 9.8
2014-Sep-09 12:33N 51°53' E 004°18'1 0.8
2014-Sep-09 11:13N 51°53' E 004°17'0 0.0
2014-Sep-09 10:22N 51°53' E 004°17'0 0.0
2014-Sep-09 09:31N 51°53' E 004°17'0 0.0
2014-Sep-09 08:28N 51°53' E 004°17'0 0.0
2014-Sep-09 07:22N 51°53' E 004°17'0 0.0
2014-Sep-09 06:25N 51°53' E 004°17'0 0.0
2014-Sep-09 05:31N 51°53' E 004°17'0 0.0
2014-Sep-09 04:31N 51°53' E 004°17'0 0.0
2014-Sep-09 03:31N 51°53' E 004°17'0 0.0
2014-Sep-09 02:28N 51°53' E 004°17'0 0.0
2014-Sep-09 00:04N 51°53' E 004°17'0 0.0
2014-Sep-08 23:31N 51°53' E 004°17'0 0.0
2014-Sep-08 22:31N 51°53' E 004°17'0 0.0
2014-Sep-08 21:22N 51°53' E 004°17'0 0.0
2014-Sep-08 20:31N 51°53' E 004°17'0 0.0
2014-Sep-08 19:31N 51°53' E 004°17'0 0.0
2014-Sep-08 18:25N 51°53' E 004°17'0 0.0
2014-Sep-08 17:19N 51°53' E 004°17'0 0.0
2014-Sep-08 16:25N 51°53' E 004°17'0 0.0
2014-Sep-08 15:19N 51°53' E 004°17'1 1.4
2014-Sep-08 14:33N 51°54' E 004°18'2 2.2
2014-Sep-08 13:32N 51°54' E 004°22'0 0.0
2014-Sep-08 11:14N 51°54' E 004°22'0 0.0
2014-Sep-08 10:26N 51°54' E 004°22'0 0.0
2014-Sep-08 09:29N 51°54' E 004°22'0 0.0
2014-Sep-08 08:14N 51°54' E 004°22'0 0.0
2014-Sep-08 07:32N 51°54' E 004°22'0 0.0
2014-Sep-08 06:26N 51°54' E 004°22'0 0.0
2014-Sep-08 05:29N 51°54' E 004°22'0 0.0
2014-Sep-08 04:32N 51°54' E 004°22'0 0.0
2014-Sep-08 03:20N 51°54' E 004°22'0 0.0
2014-Sep-08 02:20N 51°54' E 004°22'0 0.0
2014-Sep-07 23:32N 51°54' E 004°22'0 0.0
2014-Sep-07 21:17N 51°54' E 004°22'0 0.0
2014-Sep-07 20:32N 51°54' E 004°22'0 0.0
2014-Sep-07 19:20N 51°54' E 004°22'0 0.0
2014-Sep-07 18:29N 51°54' E 004°22'0 0.0
2014-Sep-07 10:26N 51°54' E 004°22'0 0.0
2014-Sep-07 09:14N 51°54' E 004°22'0 0.0
2014-Sep-07 08:26N 51°54' E 004°22'0 0.0
2014-Sep-07 07:20N 51°54' E 004°22'0 0.0
2014-Sep-07 06:32N 51°54' E 004°22'0 0.0
2014-Sep-07 05:32N 51°54' E 004°22'0 0.0
2014-Sep-07 04:32N 51°54' E 004°22'0 0.0
2014-Sep-07 03:08N 51°54' E 004°22'0 0.0
2014-Sep-06 21:08N 51°54' E 004°22'0 0.0
2014-Sep-06 20:27N 51°54' E 004°22'4 4.8
2014-Sep-06 19:34N 51°55' E 004°15'10 9.6
2014-Sep-06 18:33N 51°60' E 004°01'1010.5
2014-Sep-06 17:33N 51°59' E 003°44'9 7.7
2014-Sep-06 16:26N 51°55' E 003°32'0 0.0
2014-Sep-06 06:13N 51°55' E 003°32'0 0.0
2014-Sep-06 05:16N 51°55' E 003°32'3 4.5
2014-Sep-06 04:31N 51°55' E 003°27'10 9.8
2014-Sep-06 03:33N 51°53' E 003°12'1010.1
2014-Sep-06 02:33N 51°50' E 002°56'1310.5
2014-Sep-06 01:20N 51°45' E 002°37'910.8
2014-Sep-06 00:33N 51°38' E 002°28'1111.4
2014-Sep-05 23:33N 51°30' E 002°16'1313.0
2014-Sep-05 22:33N 51°18' E 002°09'1414.3
2014-Sep-05 21:33N 51°09' E 001°51'1515.2
2014-Sep-05 20:33N 50°58' E 001°34'4113.7
2014-Sep-05 17:32N 50°28' E 000°49'1414.4
2014-Sep-05 16:33N 50°24' E 000°28'18912.6
2014-Sep-05 01:31N 49°21' W 004°09'4413.6
2014-Sep-04 22:15N 48°58' W 005°07'1213.3
2014-Sep-04 21:19N 48°52' W 005°24'1312.9
2014-Sep-04 20:19N 48°44' W 005°40'1013.1
2014-Sep-04 19:33N 48°36' W 005°47'5512.8
2014-Sep-04 15:13N 47°47' W 006°25'  

Dump ship's entire track history